Winnie, TX (77665)

7:18 PM CST on February 11, 2016 (GMT -0600)
Burrell Cove | | Change Station
CLOSE
Current Station
Personal Weather Station
Location: Beaumont, TX
Elevation: 16 ft
Nearby Weather Stations

Elev 16 ft 29.89 °N, 94.22 °W | Updated 17 seconds ago

Clear
Clear
63.2 °F
Feels Like 63.2 °F
N
2.0
Wind Variable Wind from SW
Gusts 4.0 mph

Today
High -- | Low -- °F
--% Chance of Precip.
Yesterday
High -- | Low -- °F
Precip. -- in
Pressure 30.16 in
Visibility 10.0 miles
Clouds Clear
Dew Point 59 °F
Humidity 87%
Rainfall 0.00 in
Snow Depth Not available.
7:00 AM 6:02 PM
Waxing Crescent, 16% visible
METAR KBMT 120055Z AUTO 20007KT 10SM CLR 18/13 A3016 RMK AO2 T01780127
Pressure 30.16 in
Visibility 10.0 miles
Clouds Clear
Dew Point 59 °F
Humidity 87%
Rainfall 0.00 in
Snow Depth Not available.
7:00 AM 6:02 PM
Waxing Crescent, 16% visible
METAR KBMT 120055Z AUTO 20007KT 10SM CLR 18/13 A3016 RMK AO2 T01780127

10-Day Weather Forecast

Almanac

Astronomy

Feb. 11, 2016 Rise Set
Actual Time
Civil Twilight
Nautical Twilight
Astronomical Twilight
Moon
Length of Visible Light
Length of Day
Tomorrow will be .
, % of the Moon is Illuminated

Today's Extremes

State Highs State Lows

Community

WunderPhotos

Upload Photos

1,892,205 photos uploaded!

WunderBlog® & News

Nearby

Air Quality

  Air Quality AQ Index Pollutant
Not available.

Snow Depth

Station Depth Elevation

Earthquake Activity

City Distance Mag. Time & Date
Minimum magnitude displayed is 2.5.

Coastal Water Temperatures

Place Temperature

Stations

Nearby Weather Stations

Station Location Temp. Windchill Dew Point Humidity Wind Precip. Elev Updated Type
                   

Watches & Warnings

There are currently no watches in effect.